Terminal Aerodrome Forecast
Issued by NWS

Home | Current Version | Previous Version | Text Only | Print | Product List | Glossary On
Versions: 1 2 3 4 5 6 7 8 9 10 11 12 13 14 15 16 17 18 19 20 21 22 23 24 25 26 27 28
000
FTUS43 KDLH 291400 AAA
TAFHIB
TAF AMD
KHIB 291435Z 2915/3012 33018G28KT 5SM -SN BLSN OVC012
      TEMPO 2915/2916 OVC006
     FM291900 34010G17KT P6SM -SN OVC015
     FM300100 32008KT P6SM SCT013=

USA.gov is the U.S. government's official web portal to all federal, state and local government web resources and services.